Time;durP1;ratioP1;P1;durP2;ratioP2;P2;SDS_P1;SDS_P2;PMS_P1;PMS_P2;Temp;Humidity;BMP_temperature;BMP_pressure;BME280_temperature;BME280_humidity;BME280_pressure;Samples;Min_cycle;Max_cycle;Signal;HPM_P1;HPM_P2
2022/11/13 00:00:33;;;;;;;3.52;2.60;;;;;;;9.78;88.58;100930.05;1751077;80;20990;-79
2022/11/13 00:03:18;;;;;;;3.05;2.75;;;;;;;9.72;88.65;100925.28;1713094;82;21017;-79
2022/11/13 00:06:03;;;;;;;6.58;2.95;;;;;;;9.77;88.52;100925.23;1739495;80;21018;-79
2022/11/13 00:08:52;;;;;;;3.55;3.15;;;;;;;9.88;88.33;100924.77;1717964;82;21067;-79
2022/11/13 00:11:39;;;;;;;3.17;2.87;;;;;;;9.86;88.22;100922.73;1747074;80;21070;-76
2022/11/13 00:14:23;;;;;;;3.02;2.72;;;;;;;9.77;88.57;100923.04;1712733;82;21798;-77
2022/11/13 00:17:09;;;;;;;4.15;2.58;;;;;;;9.74;88.71;100919.34;1739058;82;21101;-78
2022/11/13 00:19:55;;;;;;;4.55;3.10;;;;;;;9.78;88.69;100911.47;1711428;82;20979;-78
2022/11/13 00:22:40;;;;;;;4.90;2.83;;;;;;;9.86;88.65;100915.61;1757624;80;21200;-78
2022/11/13 00:25:25;;;;;;;2.77;2.40;;;;;;;9.79;88.61;100919.77;1719154;82;21058;-79
2022/11/13 00:28:09;;;;;;;3.60;2.75;;;;;;;9.73;88.99;100918.98;1720810;82;21196;-77
2022/11/13 00:31:00;;;;;;;4.12;2.87;;;;;;;9.76;88.98;100917.39;1717675;82;21569;-79
2022/11/13 00:33:45;;;;;;;3.92;3.20;;;;;;;9.83;88.85;100910.09;1721367;82;21054;-78
2022/11/13 00:36:30;;;;;;;4.33;3.00;;;;;;;9.79;89.06;100906.50;1721269;82;21087;-77
2022/11/13 00:39:15;;;;;;;4.37;2.95;;;;;;;9.72;89.19;100908.03;1718708;82;21089;-77
2022/11/13 00:42:00;;;;;;;3.00;2.58;;;;;;;9.70;89.29;100900.20;1732176;82;21149;-77
2022/11/13 00:44:45;;;;;;;3.15;2.75;;;;;;;9.75;89.26;100899.78;1739154;82;21050;-76
2022/11/13 00:47:30;;;;;;;3.75;3.37;;;;;;;9.72;89.58;100904.87;1719183;82;21030;-77
2022/11/13 00:50:16;;;;;;;3.62;3.30;;;;;;;9.72;89.72;100896.09;1743352;81;21065;-75
2022/11/13 00:53:01;;;;;;;4.97;3.27;;;;;;;9.70;89.65;100897.54;1722170;82;20998;-76
2022/11/13 00:55:46;;;;;;;4.70;3.62;;;;;;;9.76;89.34;100900.15;1733168;82;21622;-75
2022/11/13 00:58:32;;;;;;;4.33;3.87;;;;;;;9.77;89.39;100899.16;1728582;82;21052;-77
2022/11/13 01:01:18;;;;;;;3.90;2.98;;;;;;;9.75;89.73;100896.62;1714443;82;22337;-76
2022/11/13 01:04:03;;;;;;;4.42;3.37;;;;;;;9.71;89.54;100882.45;1724497;82;21016;-76
2022/11/13 01:06:49;;;;;;;6.00;3.58;;;;;;;9.70;89.40;100886.93;1727106;82;21100;-76
2022/11/13 01:09:34;;;;;;;7.05;4.25;;;;;;;9.73;89.39;100892.44;1705300;82;21144;-75
2022/11/13 01:12:19;;;;;;;4.75;3.92;;;;;;;9.66;89.59;100890.83;1722329;82;21097;-77
2022/11/13 01:15:05;;;;;;;4.60;3.15;;;;;;;9.62;89.79;100888.92;1718706;82;21065;-75
2022/11/13 01:17:53;;;;;;;4.15;3.17;;;;;;;9.68;89.77;100885.36;1731235;82;21085;-74
2022/11/13 01:20:37;;;;;;;5.40;3.33;;;;;;;9.77;89.60;100892.06;1733194;82;21053;-76
2022/11/13 01:23:24;;;;;;;5.90;3.65;;;;;;;9.77;89.64;100888.55;1746316;81;21648;-76
2022/11/13 01:28:36;;;;;;;4.03;2.77;;;;;;;9.73;89.57;100882.66;1809731;77;28170;-75
2022/11/13 01:31:25;;;;;;;3.25;2.85;;;;;;;9.67;89.51;100875.73;1766181;80;21092;-75
2022/11/13 01:34:11;;;;;;;3.85;2.87;;;;;;;9.55;89.80;100872.34;1779200;80;22087;-75
2022/11/13 01:36:56;;;;;;;4.47;3.05;;;;;;;9.57;90.01;100877.03;1783076;80;21040;-77
2022/11/13 01:39:41;;;;;;;3.52;2.77;;;;;;;9.62;89.92;100875.66;1763600;79;21557;-78
2022/11/13 01:42:27;;;;;;;4.30;3.15;;;;;;;9.53;90.13;100875.62;1755226;80;21005;-77
2022/11/13 01:45:58;;;;;;;3.00;2.30;;;;;;;9.49;90.47;100868.91;1785912;80;21048;-78
2022/11/13 01:48:48;;;;;;;3.25;2.95;;;;;;;9.49;90.45;100864.93;1781320;80;21150;-77
2022/11/13 01:51:55;;;;;;;4.53;2.85;;;;;;;9.52;90.32;100868.16;1769686;78;20921;-77
2022/11/13 01:54:55;;;;;;;4.47;2.80;;;;;;;9.46;90.65;100867.34;1786367;78;21021;-75
2022/11/13 01:57:40;;;;;;;5.83;3.75;;;;;;;9.38;90.96;100867.17;1772079;78;21033;-76
2022/11/13 02:00:25;;;;;;;3.87;2.70;;;;;;;9.41;91.11;100861.62;1767207;80;21030;-77
2022/11/13 02:03:10;;;;;;;4.50;2.50;;;;;;;9.53;90.94;100860.54;1764393;80;21261;-77
2022/11/13 02:05:56;;;;;;;3.02;2.52;;;;;;;9.52;90.88;100865.51;1784222;79;21112;-73
2022/11/13 02:08:40;;;;;;;2.90;2.52;;;;;;;9.47;91.09;100871.69;1777580;80;21159;-76
2022/11/13 02:11:26;;;;;;;3.37;2.20;;;;;;;9.48;91.04;100862.74;1782480;80;21036;-77
2022/11/13 02:14:12;;;;;;;3.08;2.25;;;;;;;9.57;90.85;100862.44;1786972;80;21544;-76
2022/11/13 02:17:01;;;;;;;4.33;2.70;;;;;;;9.55;90.91;100867.05;1762458;79;20989;-75
2022/11/13 02:19:50;;;;;;;2.15;1.85;;;;;;;9.48;90.87;100870.70;1778621;79;21022;-76
2022/11/13 02:23:02;;;;;;;3.77;2.27;;;;;;;9.45;90.98;100859.05;1769413;80;21585;-79
2022/11/13 02:25:47;;;;;;;2.70;2.20;;;;;;;9.52;90.92;100853.57;1775877;80;21044;-78
2022/11/13 02:28:32;;;;;;;2.58;2.10;;;;;;;9.48;91.12;100856.11;1771549;80;21105;-76
2022/11/13 02:31:18;;;;;;;3.60;2.40;;;;;;;9.40;91.29;100859.42;1775704;80;21651;-75
2022/11/13 02:34:05;;;;;;;2.90;2.42;;;;;;;9.42;91.30;100861.45;1772181;79;21494;-77
2022/11/13 02:36:51;;;;;;;2.47;1.90;;;;;;;9.49;91.04;100860.45;1770011;80;21957;-78
2022/11/13 02:39:38;;;;;;;2.52;2.12;;;;;;;9.42;91.12;100864.11;1785412;80;21478;-77
2022/11/13 02:42:23;;;;;;;3.90;2.33;;;;;;;9.34;91.41;100861.78;1787254;80;21007;-76
2022/11/13 02:45:09;;;;;;;3.33;2.00;;;;;;;9.32;91.52;100862.41;1778121;78;21135;-76
2022/11/13 02:47:54;;;;;;;4.08;2.10;;;;;;;9.38;91.59;100859.22;1756992;80;21105;-77
2022/11/13 02:50:41;;;;;;;3.45;1.98;;;;;;;9.36;91.72;100862.49;1778166;80;21060;-76
2022/11/13 02:53:26;;;;;;;2.42;1.80;;;;;;;9.29;91.74;100863.52;1784614;80;21224;-76
2022/11/13 02:56:12;;;;;;;2.77;1.82;;;;;;;9.33;91.73;100869.38;1770759;79;21057;-76
2022/11/13 02:58:58;;;;;;;3.25;1.85;;;;;;;9.37;91.59;100871.64;1786700;80;21226;-78
2022/11/13 03:01:44;;;;;;;3.25;2.08;;;;;;;9.33;91.86;100879.52;1768662;80;21522;-76
2022/11/13 03:04:31;;;;;;;2.20;1.92;;;;;;;9.28;92.08;100874.25;1783382;78;21080;-76
2022/11/13 03:07:15;;;;;;;2.10;1.87;;;;;;;9.30;92.05;100871.81;1788084;80;21010;-77
2022/11/13 03:10:01;;;;;;;2.95;1.82;;;;;;;9.40;91.82;100883.30;1770283;80;21520;-79
2022/11/13 03:12:46;;;;;;;3.62;1.80;;;;;;;9.40;91.96;100885.13;1777878;80;21907;-75
2022/11/13 03:15:33;;;;;;;2.15;1.70;;;;;;;9.42;92.03;100890.63;1767647;79;21449;-74
2022/11/13 03:18:19;;;;;;;2.10;1.90;;;;;;;9.48;91.67;100885.29;1781053;80;22191;-75
2022/11/13 03:21:12;;;;;;;3.20;1.95;;;;;;;9.59;91.18;100871.94;1787491;80;21481;-75
2022/11/13 03:23:56;;;;;;;2.15;1.95;;;;;;;9.56;91.24;100880.64;1761340;80;21065;-75
2022/11/13 03:26:41;;;;;;;1.85;1.60;;;;;;;9.51;91.34;100874.92;1782918;80;21441;-75
2022/11/13 03:29:26;;;;;;;3.83;1.77;;;;;;;9.52;91.33;100880.09;1764333;80;20998;-75
2022/11/13 03:32:11;;;;;;;2.98;1.57;;;;;;;9.60;91.14;100879.40;1780062;80;21104;-76
2022/11/13 03:34:56;;;;;;;2.50;1.90;;;;;;;9.52;91.52;100878.77;1780256;80;21142;-76
2022/11/13 03:37:42;;;;;;;2.77;1.70;;;;;;;9.49;91.73;100883.00;1771384;80;21564;-75
2022/11/13 03:40:26;;;;;;;3.60;1.87;;;;;;;9.52;91.64;100885.41;1769124;80;21262;-74
2022/11/13 03:43:11;;;;;;;1.67;1.57;;;;;;;9.59;91.64;100881.22;1775802;80;21093;-74
2022/11/13 03:45:57;;;;;;;2.47;1.60;;;;;;;9.60;91.74;100885.56;1768133;80;21061;-74
2022/11/13 03:48:41;;;;;;;2.30;1.40;;;;;;;9.59;91.84;100885.70;1760110;80;21049;-76
2022/11/13 03:51:26;;;;;;;2.30;1.75;;;;;;;9.60;91.56;100886.03;1780511;80;21049;-76
2022/11/13 03:54:11;;;;;;;2.30;2.00;;;;;;;9.59;91.43;100884.37;1760448;80;21061;-76
2022/11/13 03:56:57;;;;;;;2.12;1.80;;;;;;;9.53;91.79;100882.25;1779184;80;21085;-76
2022/11/13 03:59:42;;;;;;;1.85;1.60;;;;;;;9.48;92.27;100889.27;1771300;80;21085;-75
2022/11/13 04:02:27;;;;;;;5.85;1.95;;;;;;;9.52;92.12;100888.05;1759053;80;21052;-77
2022/11/13 04:05:12;;;;;;;2.27;1.52;;;;;;;9.61;92.14;100887.23;1761525;80;21452;-76
2022/11/13 04:07:57;;;;;;;2.47;2.12;;;;;;;9.62;92.24;100893.40;1761870;80;21145;-76
2022/11/13 04:10:42;;;;;;;2.37;1.80;;;;;;;9.57;92.18;100892.45;1769525;80;21100;-75
2022/11/13 04:13:27;;;;;;;1.92;1.70;;;;;;;9.60;92.22;100888.22;1779966;80;21089;-76
2022/11/13 04:16:12;;;;;;;2.17;1.50;;;;;;;9.70;91.84;100891.41;1772726;80;21010;-77
2022/11/13 04:18:57;;;;;;;3.23;1.80;;;;;;;9.63;92.07;100883.95;1786808;80;21500;-76
2022/11/13 04:21:42;;;;;;;3.52;2.20;;;;;;;9.57;92.23;100881.02;1770593;79;21075;-78
2022/11/13 04:24:28;;;;;;;4.33;1.82;;;;;;;9.53;92.44;100887.56;1788156;80;20982;-78
2022/11/13 04:27:13;;;;;;;3.05;2.00;;;;;;;9.61;92.25;100893.03;1760429;80;21006;-80
2022/11/13 04:29:58;;;;;;;2.30;1.90;;;;;;;9.69;92.10;100891.87;1773887;80;21022;-78
2022/11/13 04:32:43;;;;;;;2.55;2.02;;;;;;;9.60;92.24;100890.87;1759898;79;21038;-79
2022/11/13 04:35:28;;;;;;;3.25;2.20;;;;;;;9.55;92.69;100895.73;1760389;80;21183;-79
2022/11/13 04:38:13;;;;;;;2.35;1.90;;;;;;;9.60;92.53;100896.64;1770619;80;21089;-80
2022/11/13 04:44:02;;;;;;;;;;;;;;;9.68;92.45;100899.49;1767555;80;21093;-80
2022/11/13 04:46:48;;;;;;;2.02;1.72;;;;;;;9.59;92.74;100897.63;1756077;80;20176;-77
2022/11/13 04:49:34;;;;;;;2.58;1.80;;;;;;;9.58;92.97;100900.78;1770272;80;21136;-77
2022/11/13 04:52:19;;;;;;;2.08;1.82;;;;;;;9.68;92.41;100904.80;1766480;79;21041;-76
2022/11/13 04:55:05;;;;;;;3.45;2.37;;;;;;;9.70;92.45;100908.16;1752890;80;21065;-77
2022/11/13 04:57:54;;;;;;;3.00;2.25;;;;;;;9.63;92.73;100905.67;1763826;80;21537;-76
2022/11/13 05:00:39;;;;;;;3.85;1.72;;;;;;;9.58;92.98;100908.73;1756718;79;21104;-75
2022/11/13 05:03:24;;;;;;;2.20;1.40;;;;;;;9.61;92.76;100908.95;1776009;80;21517;-76
2022/11/13 05:06:09;;;;;;;2.67;2.12;;;;;;;9.63;92.73;100905.18;1750055;80;21526;-76
2022/11/13 05:08:55;;;;;;;3.22;1.70;;;;;;;9.58;92.85;100917.16;1765811;80;21061;-75
2022/11/13 05:11:41;;;;;;;2.12;1.77;;;;;;;9.53;93.47;100915.41;1770486;80;21057;-75
2022/11/13 05:14:26;;;;;;;2.85;1.60;;;;;;;9.58;93.41;100924.66;1760049;80;21162;-75
2022/11/13 05:17:11;;;;;;;4.10;1.87;;;;;;;9.70;93.09;100919.27;1765829;80;21872;-76
2022/11/13 05:19:57;;;;;;;2.67;1.92;;;;;;;9.65;93.14;100929.77;1767995;80;20982;-77
2022/11/13 05:22:42;;;;;;;2.80;1.50;;;;;;;9.62;93.18;100931.38;1752021;80;21074;-75
2022/11/13 05:25:26;;;;;;;2.20;1.70;;;;;;;9.69;93.18;100930.84;1772935;80;21038;-77
2022/11/13 05:28:11;;;;;;;2.50;1.52;;;;;;;9.79;92.80;100928.59;1759698;80;21061;-76
2022/11/13 05:31:14;;;;;;;2.27;1.50;;;;;;;9.81;92.94;100927.11;1779465;80;21965;-75
2022/11/13 05:33:58;;;;;;;2.02;1.67;;;;;;;9.75;92.68;100926.31;1779605;80;21189;-77
2022/11/13 05:36:43;;;;;;;1.35;1.25;;;;;;;9.74;92.52;100926.81;1771805;79;21021;-75
2022/11/13 05:39:29;;;;;;;2.00;1.50;;;;;;;9.78;92.49;100923.41;1776264;80;21079;-75
2022/11/13 05:42:14;;;;;;;2.02;1.45;;;;;;;9.72;92.38;100926.11;1778795;80;21084;-76
2022/11/13 05:44:59;;;;;;;1.80;1.52;;;;;;;9.60;92.38;100935.98;1766782;79;21545;-76
2022/11/13 05:47:44;;;;;;;1.40;1.20;;;;;;;9.64;92.38;100936.55;1737497;82;21446;-76
2022/11/13 05:50:30;;;;;;;2.05;1.35;;;;;;;9.65;92.49;100936.89;1713665;83;21109;-81
2022/11/13 05:53:14;;;;;;;1.40;1.30;;;;;;;9.59;92.61;100938.26;1740841;82;21037;-74
2022/11/13 05:56:08;;;;;;;2.00;1.32;;;;;;;9.55;92.77;100936.02;1742417;82;21097;-77
2022/11/13 05:58:54;;;;;;;1.20;1.10;;;;;;;9.61;92.73;100931.50;1717307;82;21203;-76
2022/11/13 06:01:41;;;;;;;1.87;1.22;;;;;;;9.72;92.37;100941.20;1699588;83;21049;-76
2022/11/13 06:04:25;;;;;;;1.95;1.25;;;;;;;9.70;92.22;100941.33;1708679;82;21530;-76
2022/11/13 06:07:10;;;;;;;1.80;1.17;;;;;;;9.63;92.22;100939.67;1692566;83;21097;-75
2022/11/13 06:09:57;;;;;;;1.75;1.50;;;;;;;9.64;92.08;100937.88;1702535;83;21022;-74
2022/11/13 06:12:42;;;;;;;1.37;1.27;;;;;;;9.73;92.12;100944.19;1716942;83;21213;-75
2022/11/13 06:15:27;;;;;;;2.67;1.67;;;;;;;9.75;92.55;100947.55;1744785;82;21070;-75
2022/11/13 06:18:12;;;;;;;2.12;1.50;;;;;;;9.76;92.58;100947.91;1746106;82;21498;-73
2022/11/13 06:21:08;;;;;;;1.57;1.47;;;;;;;9.82;92.14;100947.38;1709870;83;21050;-76
2022/11/13 06:23:53;;;;;;;2.98;1.80;;;;;;;9.93;91.53;100940.64;1704450;82;21080;-75
2022/11/13 06:26:39;;;;;;;2.05;1.85;;;;;;;9.88;91.01;100946.00;1702178;83;21422;-74
2022/11/13 06:29:23;;;;;;;1.98;1.60;;;;;;;9.78;90.93;100949.45;1726218;82;21043;-75
2022/11/13 06:32:09;;;;;;;4.75;1.85;;;;;;;9.77;90.85;100950.44;1724833;82;21057;-75
2022/11/13 06:34:53;;;;;;;3.62;1.52;;;;;;;9.90;90.76;100950.69;1727590;82;21067;-76
2022/11/13 06:37:39;;;;;;;2.37;1.98;;;;;;;9.89;90.54;100945.87;1711202;83;21574;-75
2022/11/13 06:40:24;;;;;;;1.82;1.30;;;;;;;9.86;90.52;100946.63;1766997;79;21032;-76
2022/11/13 06:43:09;;;;;;;1.87;1.30;;;;;;;9.88;90.42;100945.51;1763321;80;21053;-74
2022/11/13 06:45:54;;;;;;;1.52;1.30;;;;;;;9.98;90.04;100946.38;1765668;80;20970;-81
2022/11/13 06:48:39;;;;;;;1.80;1.70;;;;;;;9.99;90.27;100945.91;1768289;80;21127;-76
2022/11/13 06:51:27;;;;;;;2.95;1.50;;;;;;;9.93;90.01;100946.42;1771559;80;21051;-79
2022/11/13 06:54:12;;;;;;;1.60;1.50;;;;;;;9.92;90.05;100942.94;1759054;79;21141;-78
2022/11/13 06:56:57;;;;;;;1.80;1.40;;;;;;;10.01;90.08;100946.11;1771030;79;21097;-78
2022/11/13 06:59:42;;;;;;;1.95;1.42;;;;;;;10.02;90.12;100938.98;1764295;79;21524;-79
2022/11/13 07:02:27;;;;;;;1.50;1.40;;;;;;;10.02;90.12;100942.50;1756930;80;21069;-78
2022/11/13 07:05:12;;;;;;;1.67;1.57;;;;;;;10.08;89.83;100947.73;1749937;80;21068;-78
2022/11/13 07:07:58;;;;;;;2.72;2.00;;;;;;;10.18;89.33;100949.11;1764206;80;22472;-78
2022/11/13 07:10:53;;;;;;;2.27;1.87;;;;;;;10.17;89.67;100951.40;1760855;79;21101;-77
2022/11/13 07:13:39;;;;;;;1.75;1.52;;;;;;;10.16;89.43;100951.90;1733441;80;21041;-79
2022/11/13 07:16:25;;;;;;;1.57;1.42;;;;;;;10.16;89.37;100947.05;1741472;80;21033;-77
2022/11/13 07:19:10;;;;;;;2.05;1.85;;;;;;;10.27;89.27;100950.09;1767811;79;21022;-79
2022/11/13 07:21:55;;;;;;;2.00;1.80;;;;;;;10.41;88.92;100944.41;1754887;80;22167;-79
2022/11/13 07:24:41;;;;;;;2.42;1.90;;;;;;;10.43;88.61;100947.80;1759404;80;21054;-78
2022/11/13 07:27:26;;;;;;;2.20;1.90;;;;;;;10.41;88.43;100948.39;1765583;80;21108;-79
2022/11/13 07:30:13;;;;;;;4.25;2.22;;;;;;;10.43;88.39;100943.31;1765769;78;21104;-78
2022/11/13 07:33:03;;;;;;;3.22;1.98;;;;;;;10.56;87.91;100934.22;1786989;80;21521;-78
2022/11/13 07:35:48;;;;;;;3.30;2.35;;;;;;;10.52;87.78;100932.83;1770517;79;21256;-78
2022/11/13 07:38:34;;;;;;;2.65;2.42;;;;;;;10.47;88.00;100931.06;1763622;80;21053;-76
2022/11/13 07:41:19;;;;;;;2.25;1.77;;;;;;;10.45;88.06;100935.67;1772506;80;21115;-78
2022/11/13 07:44:05;;;;;;;2.25;2.05;;;;;;;10.48;87.86;100932.76;1779092;80;21020;-79
2022/11/13 07:46:51;;;;;;;3.70;2.60;;;;;;;10.57;87.65;100929.28;1764504;80;21131;-79
2022/11/13 07:49:37;;;;;;;3.55;2.70;;;;;;;10.56;87.68;100925.75;1774882;80;21153;-78
2022/11/13 07:52:22;;;;;;;3.15;2.50;;;;;;;10.54;87.59;100932.20;1777471;79;21495;-79
2022/11/13 07:55:07;;;;;;;2.55;2.20;;;;;;;10.53;87.58;100935.84;1778414;80;21006;-80
2022/11/13 07:57:58;;;;;;;3.40;3.10;;;;;;;10.63;87.15;100931.37;1765770;80;21120;-78
2022/11/13 08:00:43;;;;;;;3.87;2.90;;;;;;;10.66;87.24;100939.05;1786381;80;21068;-76
2022/11/13 08:03:29;;;;;;;3.67;3.27;;;;;;;10.64;87.42;100944.99;1778825;79;21844;-80
2022/11/13 08:06:14;;;;;;;2.87;2.58;;;;;;;10.68;87.52;100947.75;1766568;79;21007;-80
2022/11/13 08:08:59;;;;;;;4.33;3.15;;;;;;;10.72;86.82;100948.28;1782296;80;21068;-81
2022/11/13 08:11:44;;;;;;;3.60;3.15;;;;;;;10.79;86.61;100957.38;1790309;80;21054;-79
2022/11/13 08:14:29;;;;;;;4.25;3.30;;;;;;;10.73;86.72;100948.65;1766492;80;21033;-80
2022/11/13 08:17:16;;;;;;;4.35;3.95;;;;;;;10.70;86.59;100959.55;1763928;79;21039;-80
2022/11/13 08:20:01;;;;;;;3.55;3.00;;;;;;;10.60;86.52;100960.40;1777194;78;21096;-78
2022/11/13 08:22:46;;;;;;;3.52;3.22;;;;;;;10.63;86.59;100964.59;1768913;80;21018;-79
2022/11/13 08:25:32;;;;;;;3.92;3.00;;;;;;;10.71;86.44;100960.73;1775991;80;21120;-77
2022/11/13 08:28:17;;;;;;;4.08;3.40;;;;;;;10.69;86.34;100952.56;1773827;79;21069;-80
2022/11/13 08:31:02;;;;;;;3.62;3.33;;;;;;;10.66;86.66;100960.30;1772731;80;21225;-81
2022/11/13 08:33:47;;;;;;;4.20;3.10;;;;;;;10.68;86.65;100963.70;1777069;80;21018;-80
2022/11/13 08:36:32;;;;;;;3.67;3.25;;;;;;;10.75;86.28;100958.64;1774691;80;21096;-80
2022/11/13 08:39:17;;;;;;;4.47;4.08;;;;;;;10.82;86.11;100947.81;1773369;78;21077;-80
2022/11/13 08:42:03;;;;;;;3.83;3.42;;;;;;;10.87;86.06;100940.73;1777003;80;21050;-81
2022/11/13 08:44:50;;;;;;;6.25;4.35;;;;;;;10.87;85.55;100941.56;1778744;80;21304;-81
2022/11/13 08:47:36;;;;;;;2.90;2.60;;;;;;;10.87;85.15;100937.58;1761390;80;21041;-80
2022/11/13 08:50:21;;;;;;;3.15;2.85;;;;;;;10.96;85.22;100934.58;1773070;80;21053;-81
2022/11/13 08:53:07;;;;;;;8.28;7.47;;;;;;;11.14;84.79;100933.36;1769328;79;21137;-77
2022/11/13 08:55:52;;;;;;;9.20;8.25;;;;;;;11.21;84.66;100926.00;1758818;79;21111;-80
2022/11/13 08:58:37;;;;;;;6.90;6.05;;;;;;;11.26;84.13;100919.40;1781356;80;21223;-81
2022/11/13 09:01:22;;;;;;;3.25;2.55;;;;;;;11.24;84.04;100916.88;1773216;79;21013;-76
2022/11/13 09:04:07;;;;;;;3.47;2.95;;;;;;;11.35;83.78;100921.20;1767416;80;21072;-73
2022/11/13 09:06:52;;;;;;;5.97;3.25;;;;;;;11.48;83.24;100920.90;1773549;80;21505;-75
2022/11/13 09:09:39;;;;;;;5.58;4.92;;;;;;;11.48;83.12;100915.08;1767515;78;21591;-76
2022/11/13 09:12:25;;;;;;;5.87;4.92;;;;;;;11.47;82.73;100910.72;1771419;80;20965;-74
2022/11/13 09:15:11;;;;;;;2.92;2.67;;;;;;;11.45;82.60;100911.86;1775960;80;21045;-75
2022/11/13 09:18:00;;;;;;;2.50;2.30;;;;;;;11.49;82.49;100905.27;1771089;80;21029;-75
2022/11/13 09:20:45;;;;;;;3.45;3.10;;;;;;;11.57;82.15;100912.02;1769648;80;21108;-77
2022/11/13 09:23:30;;;;;;;4.08;2.95;;;;;;;11.55;82.18;100896.22;1772626;80;21081;-75
2022/11/13 09:26:17;;;;;;;4.67;3.75;;;;;;;11.56;82.08;100900.54;1769912;80;21088;-75
2022/11/13 09:29:02;;;;;;;3.35;3.05;;;;;;;11.61;82.34;100900.95;1777081;80;21088;-74
2022/11/13 09:31:51;;;;;;;3.22;2.92;;;;;;;11.73;81.93;100894.94;1769620;80;21037;-74
2022/11/13 09:34:36;;;;;;;5.67;3.15;;;;;;;11.88;81.37;100895.30;1771347;80;20999;-74
2022/11/13 09:37:21;;;;;;;4.30;2.92;;;;;;;11.86;81.07;100902.59;1761648;80;21568;-75
2022/11/13 09:40:10;;;;;;;3.58;2.50;;;;;;;11.86;81.10;100892.42;1774995;80;21260;-75
2022/11/13 09:42:54;;;;;;;2.40;2.20;;;;;;;11.86;80.77;100895.08;1752077;80;21041;-75
2022/11/13 09:45:39;;;;;;;4.03;3.25;;;;;;;11.94;80.78;100892.06;1756066;80;21077;-75
2022/11/13 09:48:38;;;;;;;4.62;3.17;;;;;;;12.04;80.83;100892.51;1773206;80;21569;-74
2022/11/13 09:51:29;;;;;;;2.95;2.55;;;;;;;12.08;80.96;100888.05;1767098;80;21029;-74
2022/11/13 09:54:16;;;;;;;3.72;2.20;;;;;;;12.13;80.30;100887.12;1761289;79;21491;-74
2022/11/13 09:57:32;;;;;;;4.42;2.10;;;;;;;12.13;79.72;100879.60;1773900;79;21085;-74
2022/11/13 10:00:19;;;;;;;3.22;1.98;;;;;;;12.20;79.63;100879.35;1711214;82;21059;-74
2022/11/13 10:03:23;;;;;;;2.58;1.70;;;;;;;12.59;80.20;100883.05;1705187;83;21065;-75
2022/11/13 10:06:30;;;;;;;;;;;;;;;12.92;79.24;100888.17;1729990;81;21074;-74
2022/11/13 10:09:45;;;;;;;2.02;1.70;;;;;;;13.33;78.32;100876.95;1713261;82;21158;-76
2022/11/13 10:12:31;;;;;;;2.95;1.90;;;;;;;13.71;76.90;100874.78;1646751;85;21532;-73
2022/11/13 10:15:17;;;;;;;2.42;1.87;;;;;;;14.09;75.60;100877.41;1717867;82;21053;-75
2022/11/13 10:18:18;;;;;;;2.00;1.70;;;;;;;14.45;73.72;100880.33;1716994;81;21013;-75
2022/11/13 10:21:38;;;;;;;1.92;1.70;;;;;;;14.77;73.17;100871.49;1720828;83;21001;-74
2022/11/13 10:24:38;;;;;;;2.83;2.05;;;;;;;15.26;71.85;100873.25;1712971;82;21530;-72
2022/11/13 10:27:23;;;;;;;2.30;2.10;;;;;;;15.75;70.84;100866.44;1716391;81;21065;-75
2022/11/13 10:30:16;;;;;;;2.55;2.05;;;;;;;16.39;69.00;100872.92;1716045;82;21116;-73
2022/11/13 10:33:05;;;;;;;3.17;2.00;;;;;;;17.02;65.28;100868.23;1717490;81;21569;-75
2022/11/13 10:35:56;;;;;;;2.60;1.90;;;;;;;17.72;64.39;100861.25;1719797;82;21073;-74
2022/11/13 10:38:59;;;;;;;2.83;1.60;;;;;;;18.44;62.83;100863.92;1708185;83;21030;-75
2022/11/13 10:41:50;;;;;;;;;;;;;;;19.51;60.90;100863.89;1713978;83;21023;-76
2022/11/13 10:44:35;;;;;;;2.20;2.00;;;;;;;19.86;57.37;100864.72;1713183;82;20161;-74
2022/11/13 10:47:24;;;;;;;2.12;1.95;;;;;;;19.43;56.79;100864.40;1716904;82;21030;-75
2022/11/13 10:50:20;;;;;;;2.12;1.92;;;;;;;18.94;57.56;100865.83;1712830;82;21029;-74
2022/11/13 10:53:15;;;;;;;2.67;2.05;;;;;;;18.96;58.13;100864.59;1715616;83;21541;-74
2022/11/13 10:56:00;;;;;;;3.85;2.10;;;;;;;19.23;57.61;100866.13;1717425;83;21065;-73
2022/11/13 10:59:12;;;;;;;2.52;1.80;;;;;;;19.83;56.70;100857.85;1715852;82;21625;-75
2022/11/13 11:02:17;;;;;;;2.50;1.80;;;;;;;20.22;54.92;100850.93;1714344;83;21557;-76
2022/11/13 11:05:06;;;;;;;2.17;1.70;;;;;;;20.36;54.39;100856.35;1707063;82;21556;-75
2022/11/13 11:07:52;;;;;;;2.55;1.87;;;;;;;20.47;53.02;100847.62;1733312;82;21149;-77
2022/11/13 11:12:14;;;;;;;1.98;1.87;;;;;;;20.10;53.06;100844.45;1732751;81;21118;-74
2022/11/13 11:13:26;;;;;;;2.52;2.02;;;;;;;19.71;53.90;100836.53;1709640;82;21120;-75
2022/11/13 11:16:17;;;;;;;1.80;1.50;;;;;;;19.57;53.87;100831.61;1731085;82;21073;-73
2022/11/13 11:19:07;;;;;;;4.20;2.52;;;;;;;19.31;53.93;100833.64;1731466;82;21163;-72
2022/11/13 11:22:13;;;;;;;5.20;3.67;;;;;;;19.05;55.22;100835.16;1732235;82;21158;-73
2022/11/13 11:25:13;;;;;;;3.37;2.47;;;;;;;19.53;55.12;100832.19;1720658;81;21554;-76
2022/11/13 11:28:15;;;;;;;4.65;2.10;;;;;;;20.35;53.90;100837.13;1728829;82;21100;-74
2022/11/13 11:31:20;;;;;;;2.22;1.90;;;;;;;21.33;52.47;100831.06;1707940;82;21128;-76
2022/11/13 11:34:23;;;;;;;1.70;1.55;;;;;;;22.46;50.46;100825.08;1729707;82;21046;-75
2022/11/13 11:37:15;;;;;;;2.00;1.80;;;;;;;23.13;47.75;100821.27;1724504;82;21147;-75
2022/11/13 11:40:37;;;;;;;2.77;1.85;;;;;;;23.48;47.67;100818.48;1723664;82;21035;-76
2022/11/13 11:43:28;;;;;;;2.87;1.90;;;;;;;23.87;46.92;100806.84;1727406;82;21046;-74
2022/11/13 11:46:16;;;;;;;1.80;1.70;;;;;;;24.12;46.02;100812.92;1729749;81;21966;-75
2022/11/13 11:49:02;;;;;;;2.33;1.92;;;;;;;24.28;46.05;100808.74;1706368;83;21061;-75
2022/11/13 11:52:22;;;;;;;2.08;1.90;;;;;;;25.05;44.75;100804.30;1724254;82;21160;-78
2022/11/13 11:55:13;;;;;;;2.77;2.58;;;;;;;25.50;44.09;100806.37;1726471;82;21082;-76
2022/11/13 11:58:36;;;;;;;2.70;2.30;;;;;;;25.19;43.46;100806.22;1726877;81;21078;-75
2022/11/13 12:02:17;;;;;;;2.30;2.10;;;;;;;24.42;43.40;100804.45;1709137;82;21058;-79
2022/11/13 12:05:25;;;;;;;2.42;2.22;;;;;;;23.25;45.08;100807.79;1725949;82;21142;-80
2022/11/13 12:08:37;;;;;;;2.80;2.05;;;;;;;22.71;45.99;100803.95;1728752;82;21701;-78
2022/11/13 12:11:33;;;;;;;2.70;2.02;;;;;;;22.13;46.55;100804.47;1734882;82;21050;-81
2022/11/13 12:14:43;;;;;;;4.47;1.80;;;;;;;21.60;47.26;100802.91;1724454;82;21032;-79
2022/11/13 12:17:49;;;;;;;1.62;1.50;;;;;;;21.10;47.79;100813.97;1665534;83;21070;-76
2022/11/13 12:20:40;;;;;;;3.15;2.10;;;;;;;20.30;48.76;100819.38;1738437;82;21058;-75
2022/11/13 12:23:48;;;;;;;2.12;1.80;;;;;;;19.56;50.31;100814.28;1732190;82;21133;-76
2022/11/13 12:26:43;;;;;;;2.87;1.90;;;;;;;19.21;51.15;100817.02;1727526;82;21045;-76
2022/11/13 12:29:54;;;;;;;;;;;;;;;18.71;51.84;100806.82;1741692;82;21043;-77
2022/11/13 12:33:09;;;;;;;2.25;1.87;;;;;;;18.11;53.10;100810.33;1702065;83;20498;-76
2022/11/13 12:35:55;;;;;;;2.10;1.85;;;;;;;17.53;54.68;100815.64;1715859;83;21086;-77
2022/11/13 12:38:52;;;;;;;2.62;1.90;;;;;;;16.89;56.23;100815.69;1711146;82;21098;-77
2022/11/13 12:41:46;;;;;;;2.08;1.85;;;;;;;16.50;57.27;100818.04;1762368;79;21050;-76
2022/11/13 12:44:32;;;;;;;3.72;2.20;;;;;;;16.10;58.64;100815.48;1754601;80;21076;-74
2022/11/13 12:47:17;;;;;;;6.42;2.45;;;;;;;15.64;60.02;100820.73;1747370;80;21141;-76
2022/11/13 12:50:22;;;;;;;2.80;2.45;;;;;;;15.27;60.90;100818.72;1760509;80;21062;-77
2022/11/13 12:53:10;;;;;;;2.83;2.30;;;;;;;15.08;61.66;100812.74;1766185;79;21229;-79
2022/11/13 12:55:59;;;;;;;2.33;2.08;;;;;;;15.00;62.18;100820.80;1759903;80;21012;-78
2022/11/13 12:58:58;;;;;;;2.47;2.12;;;;;;;15.00;62.56;100815.45;1768561;80;21030;-79
2022/11/13 13:01:47;;;;;;;2.60;2.30;;;;;;;14.85;62.74;100815.30;1754593;79;21021;-78
2022/11/13 13:05:21;;;;;;;2.33;2.10;;;;;;;14.55;63.52;100814.16;1767699;80;20993;-77
2022/11/13 13:08:20;;;;;;;2.35;2.15;;;;;;;14.24;64.31;100815.32;1747832;80;21856;-77
2022/11/13 13:11:51;;;;;;;3.98;2.30;;;;;;;13.89;65.01;100817.27;1744849;80;21565;-79
2022/11/13 13:14:53;;;;;;;4.60;2.22;;;;;;;13.63;65.99;100818.69;1773471;80;21002;-78
2022/11/13 13:17:43;;;;;;;3.87;3.08;;;;;;;13.32;66.80;100823.23;1762833;80;21045;-80
2022/11/13 13:20:38;;;;;;;5.42;4.25;;;;;;;13.04;67.56;100818.53;1751594;80;21656;-78